地図

経路データ

SID SEASON NUMBER BASIN SUBBASIN NAME ISO_TIME NATURE LAT LON WMO_WIND WMO_PRES WMO_AGENCY TRACK_TYPE DIST2LAND LANDFALL IFLAG USA_AGENCY USA_ATCF_ID USA_LAT USA_LON USA_RECORD USA_STATUS USA_WIND USA_PRES USA_SSHS USA_R34_NE USA_R34_SE USA_R34_SW USA_R34_NW USA_R50_NE USA_R50_SE USA_R50_SW USA_R50_NW USA_R64_NE USA_R64_SE USA_R64_SW USA_R64_NW USA_POCI USA_ROCI USA_RMW USA_EYE TOKYO_LAT TOKYO_LON TOKYO_GRADE TOKYO_WIND TOKYO_PRES TOKYO_R50_DIR TOKYO_R50_LONG TOKYO_R50_SHORT TOKYO_R30_DIR TOKYO_R30_LONG TOKYO_R30_SHORT TOKYO_LAND CMA_LAT CMA_LON CMA_CAT CMA_WIND CMA_PRES HKO_LAT HKO_LON HKO_CAT HKO_WIND HKO_PRES NEWDELHI_LAT NEWDELHI_LON NEWDELHI_GRADE NEWDELHI_WIND NEWDELHI_PRES NEWDELHI_CI NEWDELHI_DP NEWDELHI_POCI REUNION_LAT REUNION_LON REUNION_TYPE REUNION_WIND REUNION_PRES REUNION_TNUM REUNION_CI REUNION_RMW REUNION_R34_NE REUNION_R34_SE REUNION_R34_SW REUNION_R34_NW REUNION_R50_NE REUNION_R50_SE REUNION_R50_SW REUNION_R50_NW REUNION_R64_NE REUNION_R64_SE REUNION_R64_SW REUNION_R64_NW BOM_LAT BOM_LON BOM_TYPE BOM_WIND BOM_PRES BOM_TNUM BOM_CI BOM_RMW BOM_R34_NE BOM_R34_SE BOM_R34_SW BOM_R34_NW BOM_R50_NE BOM_R50_SE BOM_R50_SW BOM_R50_NW BOM_R64_NE BOM_R64_SE BOM_R64_SW BOM_R64_NW BOM_ROCI BOM_POCI BOM_EYE BOM_POS_METHOD BOM_PRES_METHOD NADI_LAT NADI_LON NADI_CAT NADI_WIND NADI_PRES WELLINGTON_LAT WELLINGTON_LON WELLINGTON_WIND WELLINGTON_PRES DS824_LAT DS824_LON DS824_STAGE DS824_WIND DS824_PRES TD9636_LAT TD9636_LON TD9636_STAGE TD9636_WIND TD9636_PRES TD9635_LAT TD9635_LON TD9635_WIND TD9635_PRES TD9635_ROCI NEUMANN_LAT NEUMANN_LON NEUMANN_CLASS NEUMANN_WIND NEUMANN_PRES MLC_LAT MLC_LON MLC_CLASS MLC_WIND MLC_PRES USA_GUST BOM_GUST BOM_GUST_PER REUNION_GUST REUNION_GUST_PER USA_SEAHGT USA_SEARAD_NE USA_SEARAD_SE USA_SEARAD_SW USA_SEARAD_NW STORM_SPEED STORM_DIR
1971271N19089 1971 127 NI BB NOT_NAMED 1971-09-27 15:00:00 NR 19.3000 88.5000 main 219 206 __________O___ -1 19.3000 88.5000 1 4 0
1971271N19089 1971 127 NI BB NOT_NAMED 1971-09-27 18:00:00 TS 19.5023 88.5148 main 206 192 O________OP___ jtwc_io IO111971 19.5000 88.5000 -1 19.5000 88.5000 TC 25 19.5047 88.5296 1 4 8
1971271N19089 1971 127 NI BB NOT_NAMED 1971-09-27 21:00:00 TS 19.7018 88.5589 main 200 189 P________PP___ IO111971 19.6975 88.5600 -1 19.6975 88.5600 TC 25 19.7075 88.5574 1 4 9
1971271N19089 1971 127 NI BB NOT_NAMED 1971-09-28 00:00:00 TS 19.9026 88.5926 main 189 168 O________OP___ jtwc_io IO111971 19.9000 88.6000 -1 19.9000 88.6000 TC 25 19.9066 88.5815 1 4 6
1971271N19089 1971 127 NI BB NOT_NAMED 1971-09-28 03:00:00 TS 20.1050 88.6050 main 168 145 P________PO___ IO111971 20.1075 88.6075 -1 20.1075 88.6075 TC 25 20.1000 88.6000 1 4 4
1971271N19089 1971 127 NI BB NOT_NAMED 1971-09-28 06:00:00 TS 20.2954 88.6038 main 145 134 O________OP___ jtwc_io IO111971 20.3000 88.6000 -1 20.3000 88.6000 TC 25 20.2862 88.6113 1 4 0
1971271N19089 1971 127 NI BB NOT_NAMED 1971-09-28 09:00:00 TS 20.4550 88.6050 main 123 112 P________PP___ IO111971 20.4500 88.6000 -1 20.4500 88.6000 TC 30 20.4650 88.6150 1 3 0
1971271N19089 1971 127 NI BB NOT_NAMED 1971-09-28 12:00:00 TS 20.6121 88.6038 main 112 90 O________OP___ jtwc_io IO111971 20.6000 88.6000 -1 20.6000 88.6000 TC 35 20.6362 88.6112 1 4 0
1971271N19089 1971 127 NI BB NOT_NAMED 1971-09-28 15:00:00 TS 20.8050 88.6050 main 90 67 P________PO___ IO111971 20.8075 88.6075 -1 20.8075 88.6075 TC 35 20.8000 88.6000 2 4 0
1971271N19089 1971 127 NI BB NOT_NAMED 1971-09-28 18:00:00 TS 20.9776 88.5967 main 67 56 O________OP___ jtwc_io IO111971 21.0000 88.6000 -1 21.0000 88.6000 TC 35 20.9328 88.5902 2 3 352
1971271N19089 1971 127 NI BB NOT_NAMED 1971-09-28 21:00:00 TS 21.0875 88.5624 main 56 44 P________PP___ IO111971 21.1000 88.5575 -1 21.1000 88.5575 TC 50 21.0625 88.5723 2 2 340
1971271N19089 1971 127 NI BB NOT_NAMED 1971-09-29 00:00:00 TS 21.2036 88.5144 main 44 22 O________OP___ jtwc_io IO111971 21.2000 88.5000 -1 21.2000 88.5000 TC 65 21.2109 88.5433 2 3 343
1971271N19089 1971 127 NI BB NOT_NAMED 1971-09-29 03:00:00 TS 21.3750 88.4667 main 22 0 P________PO___ IO111971 21.3625 88.4500 -1 21.3625 88.4500 TC 65 21.4000 88.5000 4 4 348
1971271N19089 1971 127 NI BB NOT_NAMED 1971-09-29 06:00:00 TS 21.6217 88.4158 main 0 0 O________OP___ jtwc_io IO111971 21.6000 88.4000 -1 21.6000 88.4000 TC 65 21.6650 88.4475 4 6 350
1971271N19089 1971 127 NI BB NOT_NAMED 1971-09-29 09:00:00 TS 21.9467 88.3650 main 0 0 P________PP___ IO111971 21.9350 88.3575 -1 21.9350 88.3575 TC 65 21.9700 88.3800 4 7 351
1971271N19089 1971 127 NI BB NOT_NAMED 1971-09-29 12:00:00 TS 22.2967 88.2992 main 0 0 O________OP___ jtwc_io IO111971 22.3000 88.3000 -1 22.3000 88.3000 TC 65 22.2900 88.2975 4 7 348
1971271N19089 1971 127 NI BB NOT_NAMED 1971-09-29 15:00:00 TS 22.6100 88.2100 main 0 0 P________PO___ IO111971 22.6150 88.2150 -1 22.6150 88.2150 TC 50 22.6000 88.2000 4 6 342
1971271N19089 1971 127 NI BB NOT_NAMED 1971-09-29 18:00:00 TS 22.8936 88.0925 main 0 0 O________OP___ jtwc_io IO111971 22.9000 88.1000 -1 22.9000 88.1000 TC 35 22.8807 88.0774 4 6 336
1971271N19089 1971 127 NI BB NOT_NAMED 1971-09-29 21:00:00 TS 23.1584 87.9476 main 0 0 P________PP___ IO111971 23.1650 87.9500 -1 23.1650 87.9500 TC 30 23.1451 87.9428 4 6 332
1971271N19089 1971 127 NI BB NOT_NAMED 1971-09-30 00:00:00 TS 23.3956 87.8039 main 0 0 O________OP___ jtwc_io IO111971 23.4000 87.8000 -1 23.4000 87.8000 TC 25 23.3869 87.8118 4 5 332
1971271N19089 1971 127 NI BB NOT_NAMED 1971-09-30 03:00:00 TS 23.6100 87.6900 main 0 0 P________PO___ IO111971 23.6150 87.6850 -1 23.6150 87.6850 TC 25 23.6000 87.7000 6 4 337
1971271N19089 1971 127 NI BB NOT_NAMED 1971-09-30 06:00:00 TS 23.7980 87.6161 main 0 0 O________OP___ jtwc_io IO111971 23.8000 87.6000 -1 23.8000 87.6000 TC 25 23.7949 87.6403 6 4 342
1971271N19089 1971 127 NI BB NOT_NAMED 1971-09-30 09:00:00 TS 23.9587 87.5711 main 0 0 P________PP___ IO111971 23.9575 87.5425 -1 23.9575 87.5425 TC 25 23.9599 87.5996 6 3 347
1971271N19089 1971 127 NI BB NOT_NAMED 1971-09-30 12:00:00 TS 24.0966 87.5395 main 0 0 O________OP___ jtwc_io IO111971 24.1000 87.5000 -1 24.1000 87.5000 TC 25 24.0949 87.5592 6 3 345
1971271N19089 1971 127 NI BB NOT_NAMED 1971-09-30 15:00:00 NR 24.2000 87.5000 main 0 0 __________O___ IO111971 -1 TC 24.2000 87.5000 6 2 326
1971271N19089 1971 127 NI BB NOT_NAMED 1971-09-30 18:00:00 NR 24.2764 87.4080 main 0 0 __________P___ -1 24.2764 87.4080 6 2 304
1971271N19089 1971 127 NI BB NOT_NAMED 1971-09-30 21:00:00 NR 24.3302 87.2877 main 0 0 __________P___ -1 24.3302 87.2877 6 3 291
1971271N19089 1971 127 NI BB NOT_NAMED 1971-10-01 00:00:00 NR 24.3689 87.1486 main 0 0 __________P___ -1 24.3689 87.1486 6 3 285
1971271N19089 1971 127 NI BB NOT_NAMED 1971-10-01 03:00:00 NR 24.4000 87.0000 main 0 __________O___ -1 24.4000 87.0000 6 3 283

IBTrACS Databaseについて

本データベースは、米国NOAAが公開する1842年以降の世界の熱帯低気圧のベストトラックデータアーカイブInternational Best Track Archive for Climate Stewardship (IBTrACS)を、ウェブで閲覧しやすい形式に変換したものです。

最終更新日:2021-10-25